createdAt,value
2022-11-05T00:01:41.584Z,9.57
2022-11-05T00:04:42.354Z,9.45
2022-11-05T00:07:34.258Z,9.38
2022-11-05T00:10:07.300Z,9.37
2022-11-05T00:12:52.739Z,9.42
2022-11-05T00:15:37.868Z,9.43
2022-11-05T00:18:06.295Z,9.47
2022-11-05T00:20:34.679Z,9.48
2022-11-05T00:23:20.638Z,9.53
2022-11-05T00:25:57.597Z,9.46
2022-11-05T00:28:26.044Z,9.44
2022-11-05T00:30:54.767Z,9.41
2022-11-05T00:33:22.785Z,9.48
2022-11-05T00:35:51.372Z,9.48
2022-11-05T00:38:19.466Z,9.42
2022-11-05T00:40:47.711Z,9.41
2022-11-05T00:43:34.423Z,9.38
2022-11-05T00:46:02.473Z,9.41
2022-11-05T00:48:47.830Z,9.46
2022-11-05T00:51:15.881Z,9.48
2022-11-05T00:53:44.033Z,9.41
2022-11-05T00:56:12.125Z,9.56
2022-11-05T00:58:41.584Z,9.54
2022-11-05T01:01:12.219Z,9.54
2022-11-05T01:03:45.149Z,9.60
2022-11-05T01:06:18.574Z,9.53
2022-11-05T01:08:47.673Z,9.42
2022-11-05T01:11:33.678Z,9.48
2022-11-05T01:14:05.228Z,9.44
2022-11-05T01:16:33.670Z,9.29
2022-11-05T01:19:02.231Z,9.42
2022-11-05T01:21:30.368Z,9.31
2022-11-05T01:23:58.678Z,9.21
2022-11-05T01:26:27.872Z,9.16
2022-11-05T01:28:57.715Z,9.14
2022-11-05T01:31:28.695Z,9.13
2022-11-05T01:33:56.855Z,9.08
2022-11-05T01:36:24.895Z,9.07
2022-11-05T01:38:52.919Z,9.12
2022-11-05T01:41:21.068Z,9.06
2022-11-05T01:43:51.784Z,9.20
2022-11-05T01:46:23.199Z,9.16
2022-11-05T01:48:58.569Z,9.15
2022-11-05T01:51:30.239Z,9.06
2022-11-05T01:54:02.415Z,8.97
2022-11-05T01:56:33.506Z,8.88
2022-11-05T01:59:04.774Z,8.91
2022-11-05T02:01:33.398Z,8.89
2022-11-05T02:04:05.625Z,8.80
2022-11-05T02:06:38.003Z,8.76
2022-11-05T02:09:10.068Z,8.75
2022-11-05T02:11:38.157Z,8.74
2022-11-05T02:14:07.023Z,8.70
2022-11-05T02:16:41.600Z,8.69
2022-11-05T02:19:46.188Z,8.75
2022-11-05T02:22:39.048Z,8.73
2022-11-05T02:25:25.408Z,8.64
2022-11-05T02:28:18.089Z,8.63
2022-11-05T02:30:55.078Z,8.67
2022-11-05T02:33:43.011Z,8.64
2022-11-05T02:36:26.274Z,8.61
2022-11-05T02:39:08.333Z,8.55
2022-11-05T02:41:47.226Z,8.54
2022-11-05T02:44:24.189Z,8.58
2022-11-05T02:46:59.675Z,8.63
2022-11-05T02:49:37.935Z,8.58
2022-11-05T02:52:10.756Z,8.54
2022-11-05T02:54:43.993Z,8.51
2022-11-05T02:57:12.052Z,8.51
2022-11-05T02:59:40.179Z,8.38
2022-11-05T03:02:09.945Z,8.39
2022-11-05T03:04:38.084Z,8.31
2022-11-05T03:07:29.426Z,8.32
2022-11-05T03:10:14.806Z,8.27
2022-11-05T03:12:53.494Z,8.30
2022-11-05T03:15:34.563Z,8.33
2022-11-05T03:18:13.103Z,8.30
2022-11-05T03:20:48.382Z,8.21
2022-11-05T03:23:25.579Z,8.21
2022-11-05T03:26:00.095Z,8.20
2022-11-05T03:28:30.990Z,8.29
2022-11-05T03:31:00.429Z,8.32
2022-11-05T03:33:34.784Z,8.26
2022-11-05T03:36:08.389Z,8.25
2022-11-05T03:38:41.804Z,8.13
2022-11-05T03:41:13.243Z,8.09
2022-11-05T03:43:46.236Z,8.13
2022-11-05T03:46:19.740Z,8.08
2022-11-05T03:48:53.064Z,8.03
2022-11-05T03:51:30.815Z,8.03
2022-11-05T03:54:01.328Z,7.97
2022-11-05T03:56:34.252Z,8.00
2022-11-05T03:59:03.931Z,7.98
2022-11-05T04:01:33.908Z,8.05
2022-11-05T04:04:03.643Z,8.04
2022-11-05T04:06:49.067Z,8.07
2022-11-05T04:09:34.749Z,8.01
2022-11-05T04:12:20.605Z,7.97
2022-11-05T04:14:50.543Z,7.90
2022-11-05T04:17:17.600Z,7.88
2022-11-05T04:20:04.886Z,7.86
2022-11-05T04:22:52.251Z,7.85
2022-11-05T04:25:21.838Z,7.88
2022-11-05T04:27:51.091Z,7.81
2022-11-05T04:30:19.498Z,7.78
2022-11-05T04:32:59.944Z,7.73
2022-11-05T04:35:31.446Z,7.69
2022-11-05T04:37:59.569Z,7.64
2022-11-05T04:40:28.118Z,7.66
2022-11-05T04:42:56.783Z,7.55
2022-11-05T04:45:25.198Z,7.62
2022-11-05T04:47:54.307Z,7.71
2022-11-05T04:50:23.034Z,7.69
2022-11-05T04:52:52.476Z,7.72
2022-11-05T04:55:20.742Z,7.75
2022-11-05T04:57:50.499Z,7.55
2022-11-05T05:00:19.552Z,7.50
2022-11-05T05:02:48.851Z,7.52
2022-11-05T05:05:17.042Z,7.55
2022-11-05T05:07:45.107Z,7.55
2022-11-05T05:10:14.605Z,7.66
2022-11-05T05:12:42.699Z,7.62
2022-11-05T05:15:10.795Z,7.59
2022-11-05T05:17:39.697Z,7.57
2022-11-05T05:20:25.801Z,7.60
2022-11-05T05:22:54.629Z,7.52
2022-11-05T05:25:24.361Z,7.50
2022-11-05T05:27:52.701Z,7.58
2022-11-05T05:30:20.840Z,7.62
2022-11-05T05:32:49.682Z,7.63
2022-11-05T05:35:18.172Z,7.65
2022-11-05T05:37:46.359Z,7.59
2022-11-05T05:40:14.579Z,7.54
2022-11-05T05:42:44.487Z,7.60
2022-11-05T05:45:14.187Z,7.68
2022-11-05T05:47:42.259Z,7.67
2022-11-05T05:50:10.333Z,7.70
2022-11-05T05:52:38.517Z,7.66
2022-11-05T05:55:07.345Z,7.72
2022-11-05T05:57:35.618Z,7.74
2022-11-05T06:00:06.222Z,7.79
2022-11-05T06:02:34.428Z,7.82
2022-11-05T06:05:02.587Z,7.84
2022-11-05T06:07:35.966Z,7.93
2022-11-05T06:10:05.802Z,8.03
2022-11-05T06:12:34.052Z,8.26
2022-11-05T06:15:02.093Z,8.39
2022-11-05T06:17:31.558Z,8.52
2022-11-05T06:19:59.559Z,8.57
2022-11-05T06:22:27.591Z,8.64
2022-11-05T06:24:55.580Z,8.74
2022-11-05T06:27:23.730Z,8.77
2022-11-05T06:29:51.799Z,8.71
2022-11-05T06:32:20.033Z,8.76
2022-11-05T06:34:49.497Z,9.02
2022-11-05T06:37:17.648Z,9.04
2022-11-05T06:39:45.722Z,9.06
2022-11-05T06:42:18.668Z,9.07
2022-11-05T06:44:47.245Z,9.16
2022-11-05T06:47:15.646Z,9.32
2022-11-05T06:49:43.775Z,9.38
2022-11-05T06:52:13.980Z,9.44
2022-11-05T06:54:42.472Z,9.45
2022-11-05T06:57:10.888Z,9.58
2022-11-05T06:59:39.423Z,9.74
2022-11-05T07:02:08.115Z,9.95
2022-11-05T07:04:36.432Z,10.01
2022-11-05T07:07:04.879Z,10.02
2022-11-05T07:09:34.449Z,10.11
2022-11-05T07:12:02.478Z,10.21
2022-11-05T07:14:30.745Z,10.29
2022-11-05T07:16:59.218Z,10.39
2022-11-05T07:19:27.307Z,10.49
2022-11-05T07:21:55.261Z,10.56
2022-11-05T07:24:23.231Z,10.55
2022-11-05T07:26:52.676Z,10.71
2022-11-05T07:29:20.765Z,10.73
2022-11-05T07:31:48.834Z,10.78
2022-11-05T07:34:16.837Z,10.82
2022-11-05T07:36:45.108Z,10.81
2022-11-05T07:39:13.188Z,10.81
2022-11-05T07:41:41.194Z,10.76
2022-11-05T07:44:11.729Z,10.75
2022-11-05T07:46:39.833Z,10.91
2022-11-05T07:49:07.840Z,11.07
2022-11-05T07:51:36.220Z,11.26
2022-11-05T07:54:04.671Z,11.38
2022-11-05T07:56:32.867Z,11.50
2022-11-05T07:59:01.367Z,11.63
2022-11-05T08:01:31.218Z,11.79
2022-11-05T08:03:59.426Z,11.78
2022-11-05T08:06:27.811Z,11.79
2022-11-05T08:08:56.036Z,11.97
2022-11-05T08:11:24.427Z,12.08
2022-11-05T08:13:52.394Z,12.26
2022-11-05T08:16:21.134Z,12.36
2022-11-05T08:18:50.827Z,12.56
2022-11-05T08:21:18.866Z,12.50
2022-11-05T08:23:47.630Z,12.55
2022-11-05T08:26:15.758Z,12.61
2022-11-05T08:28:43.850Z,12.66
2022-11-05T08:31:12.133Z,12.71
2022-11-05T08:33:40.173Z,12.76
2022-11-05T08:36:09.836Z,12.90
2022-11-05T08:38:38.011Z,12.81
2022-11-05T08:41:06.189Z,12.83
2022-11-05T08:43:34.323Z,12.84
2022-11-05T08:46:02.771Z,12.95
2022-11-05T08:48:30.849Z,13.05
2022-11-05T08:51:01.927Z,13.24
2022-11-05T08:53:31.379Z,13.44
2022-11-05T08:56:00.649Z,13.37
2022-11-05T08:58:29.112Z,13.38
2022-11-05T09:01:03.374Z,13.37
2022-11-05T09:03:32.663Z,13.30
2022-11-05T09:06:00.715Z,13.38
2022-11-05T09:08:29.010Z,13.36
2022-11-05T09:10:58.497Z,13.49
2022-11-05T09:13:27.190Z,13.67
2022-11-05T09:15:55.626Z,13.83
2022-11-05T09:18:23.827Z,13.77
2022-11-05T09:20:51.922Z,13.88
2022-11-05T09:23:19.997Z,14.10
2022-11-05T09:25:48.110Z,14.17
2022-11-05T09:28:20.316Z,14.46
2022-11-05T09:30:50.012Z,14.55
2022-11-05T09:33:19.425Z,14.54
2022-11-05T09:35:47.763Z,14.48
2022-11-05T09:38:16.300Z,14.49
2022-11-05T09:40:54.363Z,14.62
2022-11-05T09:43:31.961Z,14.79
2022-11-05T09:46:05.956Z,14.84
2022-11-05T09:48:35.413Z,14.86
2022-11-05T09:51:06.087Z,14.80
2022-11-05T09:53:40.094Z,14.73
2022-11-05T09:56:19.327Z,14.89
2022-11-05T09:58:51.928Z,15.04
2022-11-05T10:01:25.460Z,15.11
2022-11-05T10:03:57.213Z,15.30
2022-11-05T10:06:28.077Z,15.45
2022-11-05T10:09:03.479Z,15.53
2022-11-05T10:11:36.876Z,15.58
2022-11-05T10:14:13.851Z,15.77
2022-11-05T10:16:44.972Z,15.75
2022-11-05T10:19:22.047Z,15.84
2022-11-05T10:22:06.104Z,16.03
2022-11-05T10:24:35.002Z,16.01
2022-11-05T10:27:03.569Z,15.94
2022-11-05T10:29:36.207Z,16.04
2022-11-05T10:32:07.577Z,15.83
2022-11-05T10:34:38.458Z,15.95
2022-11-05T10:37:07.140Z,15.93
2022-11-05T10:39:36.043Z,16.11
2022-11-05T10:42:25.201Z,16.27
2022-11-05T10:45:01.177Z,16.43
2022-11-05T10:47:52.032Z,16.39
2022-11-05T10:50:22.806Z,16.24
2022-11-05T10:52:58.516Z,16.17
2022-11-05T10:55:30.269Z,16.14
2022-11-05T10:58:09.962Z,16.22
2022-11-05T11:00:39.752Z,16.16
2022-11-05T11:03:35.598Z,16.15
2022-11-05T11:06:07.775Z,16.27
2022-11-05T11:08:37.827Z,16.20
2022-11-05T11:11:09.102Z,16.34
2022-11-05T11:13:53.187Z,16.28
2022-11-05T11:16:24.798Z,16.49
2022-11-05T11:18:55.405Z,16.52
2022-11-05T11:21:26.372Z,16.39
2022-11-05T11:23:58.960Z,16.50
2022-11-05T11:26:30.170Z,16.59
2022-11-05T11:29:01.679Z,16.60
2022-11-05T11:31:33.565Z,16.76
2022-11-05T11:34:07.681Z,16.95
2022-11-05T11:36:39.721Z,17.00
2022-11-05T11:39:12.982Z,17.23
2022-11-05T11:41:44.204Z,17.27
2022-11-05T11:44:17.681Z,17.23
2022-11-05T11:46:51.927Z,17.20
2022-11-05T11:49:34.529Z,17.20
2022-11-05T11:52:06.581Z,17.25
2022-11-05T11:54:36.005Z,17.26
2022-11-05T11:57:04.703Z,17.29
2022-11-05T12:00:02.389Z,17.44
2022-11-05T12:02:54.851Z,17.69
2022-11-05T12:05:38.336Z,17.65
2022-11-05T12:08:22.144Z,17.38
2022-11-05T12:11:00.088Z,17.38
2022-11-05T12:13:57.176Z,17.45
2022-11-05T12:16:45.662Z,17.53
2022-11-05T12:19:33.060Z,17.58
2022-11-05T12:22:07.043Z,17.43
2022-11-05T12:25:07.230Z,17.37
2022-11-05T12:27:51.443Z,17.34
2022-11-05T12:30:21.787Z,17.45
2022-11-05T12:33:15.216Z,17.37
2022-11-05T12:36:03.946Z,17.37
2022-11-05T12:38:50.033Z,17.31
2022-11-05T12:41:26.856Z,17.36
2022-11-05T12:44:10.202Z,17.26
2022-11-05T12:46:47.733Z,17.29
2022-11-05T12:49:33.859Z,17.44
2022-11-05T12:52:16.532Z,17.50
2022-11-05T12:55:01.201Z,17.55
2022-11-05T12:57:31.045Z,17.44
2022-11-05T13:00:07.669Z,17.46
2022-11-05T13:02:41.875Z,17.45
2022-11-05T13:05:17.678Z,17.49
2022-11-05T13:07:52.612Z,17.55
2022-11-05T13:10:29.146Z,17.56
2022-11-05T13:13:06.135Z,17.58
2022-11-05T13:15:40.006Z,17.48
2022-11-05T13:18:14.824Z,17.62
2022-11-05T13:20:48.030Z,17.55
2022-11-05T13:23:24.231Z,17.57
2022-11-05T13:25:57.033Z,17.44
2022-11-05T13:28:37.113Z,17.42
2022-11-05T13:31:11.309Z,17.27
2022-11-05T13:33:43.780Z,17.32
2022-11-05T13:36:33.324Z,17.27
2022-11-05T13:39:10.960Z,17.25
2022-11-05T13:42:11.234Z,17.22
2022-11-05T13:45:06.713Z,17.15
2022-11-05T13:47:54.806Z,17.13
2022-11-05T13:51:01.458Z,17.18
2022-11-05T13:54:00.500Z,17.14
2022-11-05T13:56:47.938Z,17.11
2022-11-05T13:59:46.569Z,17.11
2022-11-05T14:02:19.169Z,17.10
2022-11-05T14:04:49.102Z,17.07
2022-11-05T14:07:22.715Z,17.03
2022-11-05T14:09:56.344Z,17.03
2022-11-05T14:12:31.181Z,17.04
2022-11-05T14:15:06.201Z,17.02
2022-11-05T14:17:54.418Z,17.08
2022-11-05T14:21:02.267Z,17.00
2022-11-05T14:23:51.977Z,16.95
2022-11-05T14:26:24.067Z,16.93
2022-11-05T14:29:25.170Z,16.91
2022-11-05T14:32:08.898Z,16.85
2022-11-05T14:34:49.717Z,16.93
2022-11-05T14:37:28.002Z,16.84
2022-11-05T14:39:58.042Z,16.76
2022-11-05T14:42:29.316Z,16.80
2022-11-05T14:45:03.448Z,16.68
2022-11-05T14:47:36.951Z,16.59
2022-11-05T14:50:11.671Z,16.55
2022-11-05T14:52:41.844Z,16.46
2022-11-05T14:55:27.506Z,16.38
2022-11-05T14:58:34.136Z,16.27
2022-11-05T15:01:05.442Z,16.20
2022-11-05T15:03:47.475Z,16.21
2022-11-05T15:06:35.017Z,16.14
2022-11-05T15:09:33.833Z,16.06
2022-11-05T15:12:15.564Z,15.95
2022-11-05T15:14:56.108Z,15.82
2022-11-05T15:17:30.323Z,15.75
2022-11-05T15:20:17.909Z,15.68
2022-11-05T15:22:49.533Z,15.56
2022-11-05T15:25:24.681Z,15.50
2022-11-05T15:28:06.022Z,15.47
2022-11-05T15:30:34.193Z,15.45
2022-11-05T15:33:20.094Z,15.46
2022-11-05T15:35:48.654Z,15.47
2022-11-05T15:38:27.538Z,15.48
2022-11-05T15:41:01.179Z,15.42
2022-11-05T15:43:29.548Z,15.50
2022-11-05T15:46:02.347Z,15.47
2022-11-05T15:48:32.662Z,15.51
2022-11-05T15:51:01.261Z,15.30
2022-11-05T15:53:51.502Z,15.13
2022-11-05T15:56:29.409Z,15.08
2022-11-05T15:59:02.094Z,14.95
2022-11-05T16:01:33.168Z,14.90
2022-11-05T16:04:12.597Z,14.89
2022-11-05T16:06:43.991Z,14.83
2022-11-05T16:09:23.216Z,14.75
2022-11-05T16:12:12.979Z,14.76
2022-11-05T16:14:41.947Z,14.75
2022-11-05T16:17:20.970Z,14.76
2022-11-05T16:19:51.549Z,14.67
2022-11-05T16:22:20.140Z,14.65
2022-11-05T16:24:50.504Z,14.53
2022-11-05T16:27:21.175Z,14.44
2022-11-05T16:29:52.338Z,14.46
2022-11-05T16:32:30.227Z,14.42
2022-11-05T16:35:02.346Z,14.39
2022-11-05T16:37:38.000Z,14.31
2022-11-05T16:40:14.093Z,14.38
2022-11-05T16:42:43.039Z,14.26
2022-11-05T16:45:14.947Z,14.17
2022-11-05T16:47:43.992Z,14.09
2022-11-05T16:50:25.316Z,14.11
2022-11-05T16:52:53.997Z,14.23
2022-11-05T16:55:21.976Z,14.26
2022-11-05T16:57:53.551Z,14.13
2022-11-05T17:00:22.739Z,13.98
2022-11-05T17:02:51.355Z,13.89
2022-11-05T17:05:24.595Z,13.87
2022-11-05T17:07:56.230Z,13.86
2022-11-05T17:10:26.392Z,13.80
2022-11-05T17:12:54.895Z,13.82
2022-11-05T17:15:26.335Z,13.76
2022-11-05T17:17:55.380Z,13.71
2022-11-05T17:20:40.268Z,13.67
2022-11-05T17:23:10.968Z,13.56
2022-11-05T17:25:40.212Z,13.54
2022-11-05T17:28:09.939Z,13.47
2022-11-05T17:30:41.168Z,13.41
2022-11-05T17:33:10.347Z,13.33
2022-11-05T17:35:41.316Z,13.30
2022-11-05T17:38:09.669Z,13.28
2022-11-05T17:40:38.330Z,13.24
2022-11-05T17:43:07.359Z,13.23
2022-11-05T17:45:35.571Z,13.25
2022-11-05T17:48:05.218Z,13.22
2022-11-05T17:50:33.254Z,13.16
2022-11-05T17:53:02.647Z,13.09
2022-11-05T17:55:30.724Z,13.04
2022-11-05T17:57:58.917Z,13.04
2022-11-05T18:00:27.653Z,13.04
2022-11-05T18:02:55.856Z,13.13
2022-11-05T18:05:27.837Z,13.09
2022-11-05T18:07:56.493Z,13.07
2022-11-05T18:10:26.332Z,13.03
2022-11-05T18:12:54.333Z,13.05
2022-11-05T18:15:22.638Z,12.97
2022-11-05T18:17:50.946Z,12.91
2022-11-05T18:20:20.657Z,12.86
2022-11-05T18:22:51.291Z,12.94
2022-11-05T18:25:19.801Z,12.87
2022-11-05T18:27:49.162Z,12.86
2022-11-05T18:30:17.356Z,12.88
2022-11-05T18:32:48.605Z,12.84
2022-11-05T18:35:17.070Z,12.80
2022-11-05T18:37:45.394Z,12.82
2022-11-05T18:40:13.731Z,12.81
2022-11-05T18:42:41.781Z,12.84
2022-11-05T18:45:12.804Z,12.83
2022-11-05T18:47:41.254Z,12.79
2022-11-05T18:50:11.701Z,12.76
2022-11-05T18:52:39.749Z,12.72
2022-11-05T18:55:09.292Z,12.69
2022-11-05T18:57:37.474Z,12.66
2022-11-05T19:00:06.489Z,12.61
2022-11-05T19:02:36.139Z,12.56
2022-11-05T19:05:27.968Z,12.54
2022-11-05T19:07:52.698Z,12.48
2022-11-05T19:10:20.852Z,12.45
2022-11-05T19:12:48.950Z,12.40
2022-11-05T19:15:17.200Z,12.46
2022-11-05T19:17:46.976Z,12.37
2022-11-05T19:20:15.093Z,12.33
2022-11-05T19:22:43.170Z,12.38
2022-11-05T19:25:11.775Z,12.31
2022-11-05T19:27:39.889Z,12.24
2022-11-05T19:30:09.060Z,12.18
2022-11-05T19:32:37.334Z,12.14
2022-11-05T19:35:07.439Z,12.13
2022-11-05T19:37:35.693Z,12.08
2022-11-05T19:40:03.748Z,12.09
2022-11-05T19:42:31.794Z,12.04
2022-11-05T19:45:16.792Z,12.03
2022-11-05T19:47:47.853Z,11.98
2022-11-05T19:50:17.374Z,11.94
2022-11-05T19:52:45.488Z,11.92
2022-11-05T19:55:13.509Z,11.93
2022-11-05T19:57:41.880Z,11.91
2022-11-05T20:00:11.912Z,11.88
2022-11-05T20:02:40.064Z,11.84
2022-11-05T20:05:08.719Z,11.78
2022-11-05T20:07:38.128Z,11.75
2022-11-05T20:10:07.292Z,11.73
2022-11-05T20:12:36.013Z,11.73
2022-11-05T20:15:05.017Z,11.70
2022-11-05T20:17:33.124Z,11.71
2022-11-05T20:20:01.249Z,11.73
2022-11-05T20:22:29.315Z,11.71
2022-11-05T20:24:59.411Z,11.77
2022-11-05T20:27:27.533Z,11.74
2022-11-05T20:29:55.685Z,11.79
2022-11-05T20:32:23.720Z,11.80
2022-11-05T20:34:51.887Z,11.86
2022-11-05T20:37:20.186Z,11.82
2022-11-05T20:39:48.306Z,11.75
2022-11-05T20:42:17.929Z,11.70
2022-11-05T20:44:45.941Z,11.62
2022-11-05T20:47:14.049Z,11.57
2022-11-05T20:49:42.198Z,11.55
2022-11-05T20:52:10.249Z,11.51
2022-11-05T20:54:38.485Z,11.55
2022-11-05T20:57:06.730Z,11.52
2022-11-05T20:59:36.738Z,11.52
2022-11-05T21:02:05.133Z,11.50
2022-11-05T21:04:33.581Z,11.55
2022-11-05T21:07:01.652Z,11.69
2022-11-05T21:09:30.198Z,11.62
2022-11-05T21:12:13.458Z,11.54
2022-11-05T21:14:44.547Z,11.51
2022-11-05T21:17:13.735Z,11.39
2022-11-05T21:19:42.133Z,11.42
2022-11-05T21:22:10.344Z,11.35
2022-11-05T21:24:38.672Z,11.35
2022-11-05T21:27:06.779Z,11.32
2022-11-05T21:29:34.806Z,11.34
2022-11-05T21:32:04.318Z,11.30
2022-11-05T21:34:32.303Z,11.26
2022-11-05T21:37:00.365Z,11.26
2022-11-05T21:39:29.098Z,11.22
2022-11-05T21:41:57.388Z,11.18
2022-11-05T21:44:25.402Z,11.22
2022-11-05T21:46:57.409Z,11.22
2022-11-05T21:49:27.723Z,11.17
2022-11-05T21:52:13.316Z,11.11
2022-11-05T21:54:57.964Z,11.15
2022-11-05T21:57:43.510Z,11.14
2022-11-05T22:00:12.840Z,11.18
2022-11-05T22:02:41.316Z,11.24
2022-11-05T22:05:12.303Z,11.27
2022-11-05T22:07:40.856Z,11.40
2022-11-05T22:10:16.223Z,11.31
2022-11-05T22:12:45.379Z,11.21
2022-11-05T22:15:13.812Z,11.28
2022-11-05T22:17:46.840Z,11.16
2022-11-05T22:20:17.174Z,11.04
2022-11-05T22:22:45.714Z,11.07
2022-11-05T22:25:14.839Z,11.00
2022-11-05T22:27:44.005Z,11.01
2022-11-05T22:30:13.379Z,11.00
2022-11-05T22:32:41.723Z,11.00
2022-11-05T22:35:10.666Z,10.98
2022-11-05T22:37:40.254Z,10.94
2022-11-05T22:40:09.771Z,10.93
2022-11-05T22:42:38.164Z,10.92
2022-11-05T22:45:07.423Z,11.03
2022-11-05T22:47:35.436Z,11.16
2022-11-05T22:50:03.531Z,11.05
2022-11-05T22:52:32.773Z,10.99
2022-11-05T22:55:03.890Z,10.98
2022-11-05T22:57:31.908Z,10.97
2022-11-05T22:59:59.993Z,10.96
2022-11-05T23:02:28.266Z,10.92
2022-11-05T23:04:56.389Z,10.98
2022-11-05T23:07:41.984Z,10.97
2022-11-05T23:10:29.278Z,10.97
2022-11-05T23:12:57.372Z,10.99
2022-11-05T23:15:42.061Z,10.92
2022-11-05T23:18:27.909Z,10.89
2022-11-05T23:21:13.672Z,10.95
2022-11-05T23:23:58.897Z,10.83
2022-11-05T23:26:45.005Z,10.98
2022-11-05T23:29:13.036Z,11.01
2022-11-05T23:31:57.978Z,10.97
2022-11-05T23:34:26.399Z,10.88
2022-11-05T23:37:11.636Z,10.87
2022-11-05T23:39:42.589Z,10.83
2022-11-05T23:42:29.947Z,10.73
2022-11-05T23:45:15.279Z,10.79
2022-11-05T23:48:01.232Z,10.86
2022-11-05T23:50:33.209Z,10.69
2022-11-05T23:53:05.293Z,10.49
2022-11-05T23:55:33.462Z,10.50
2022-11-05T23:58:02.935Z,10.48
